sensor_id;sensor_type;location;lat;lon;timestamp;temperature;humidity
74384;DHT22;62824;52.994;-3.936;2024-03-02T00:00:09;2.60;99.90
74384;DHT22;62824;52.994;-3.936;2024-03-02T00:02:43;2.50;99.90
74384;DHT22;62824;52.994;-3.936;2024-03-02T00:05:18;2.50;99.90
74384;DHT22;62824;52.994;-3.936;2024-03-02T00:07:53;2.50;99.90
74384;DHT22;62824;52.994;-3.936;2024-03-02T00:10:26;2.50;99.90
74384;DHT22;62824;52.994;-3.936;2024-03-02T00:12:55;2.50;99.90
74384;DHT22;62824;52.994;-3.936;2024-03-02T00:15:41;2.50;99.90
74384;DHT22;62824;52.994;-3.936;2024-03-02T00:18:11;2.50;99.90
74384;DHT22;62824;52.994;-3.936;2024-03-02T00:20:41;2.50;99.90
74384;DHT22;62824;52.994;-3.936;2024-03-02T00:23:09;2.40;99.90
74384;DHT22;62824;52.994;-3.936;2024-03-02T00:25:47;2.40;99.90
74384;DHT22;62824;52.994;-3.936;2024-03-02T00:28:20;2.40;99.90
74384;DHT22;62824;52.994;-3.936;2024-03-02T00:30:59;2.40;99.90
74384;DHT22;62824;52.994;-3.936;2024-03-02T00:33:33;2.40;99.90
74384;DHT22;62824;52.994;-3.936;2024-03-02T00:36:00;2.30;99.90
74384;DHT22;62824;52.994;-3.936;2024-03-02T00:38:27;2.30;99.90
74384;DHT22;62824;52.994;-3.936;2024-03-02T00:40:54;2.20;99.90
74384;DHT22;62824;52.994;-3.936;2024-03-02T00:43:41;2.20;99.90
74384;DHT22;62824;52.994;-3.936;2024-03-02T00:46:17;2.10;99.90
74384;DHT22;62824;52.994;-3.936;2024-03-02T00:51:36;2.00;99.90
74384;DHT22;62824;52.994;-3.936;2024-03-02T00:54:08;2.00;99.90
74384;DHT22;62824;52.994;-3.936;2024-03-02T00:56:34;2.00;99.90
74384;DHT22;62824;52.994;-3.936;2024-03-02T00:59:00;2.00;99.90
74384;DHT22;62824;52.994;-3.936;2024-03-02T01:01:26;2.10;99.90
74384;DHT22;62824;52.994;-3.936;2024-03-02T01:03:53;2.10;99.90
74384;DHT22;62824;52.994;-3.936;2024-03-02T01:06:19;2.10;99.90
74384;DHT22;62824;52.994;-3.936;2024-03-02T01:08:45;2.10;99.90
74384;DHT22;62824;52.994;-3.936;2024-03-02T01:11:12;2.10;99.90
74384;DHT22;62824;52.994;-3.936;2024-03-02T01:13:38;2.10;99.90
74384;DHT22;62824;52.994;-3.936;2024-03-02T01:16:04;2.00;99.90
74384;DHT22;62824;52.994;-3.936;2024-03-02T01:18:30;2.10;99.90
74384;DHT22;62824;52.994;-3.936;2024-03-02T01:20:56;2.10;99.90
74384;DHT22;62824;52.994;-3.936;2024-03-02T01:23:23;2.10;99.90
74384;DHT22;62824;52.994;-3.936;2024-03-02T01:25:49;2.10;99.90
74384;DHT22;62824;52.994;-3.936;2024-03-02T01:28:19;2.20;99.90
74384;DHT22;62824;52.994;-3.936;2024-03-02T01:30:46;2.20;99.90
74384;DHT22;62824;52.994;-3.936;2024-03-02T01:33:13;2.10;99.90
74384;DHT22;62824;52.994;-3.936;2024-03-02T01:35:39;2.10;99.90
74384;DHT22;62824;52.994;-3.936;2024-03-02T01:38:05;2.20;99.90
74384;DHT22;62824;52.994;-3.936;2024-03-02T01:40:37;2.20;99.90
74384;DHT22;62824;52.994;-3.936;2024-03-02T01:43:06;2.10;99.90
74384;DHT22;62824;52.994;-3.936;2024-03-02T01:45:33;2.10;99.90
74384;DHT22;62824;52.994;-3.936;2024-03-02T01:48:00;2.10;99.90
74384;DHT22;62824;52.994;-3.936;2024-03-02T01:50:31;2.10;99.90
74384;DHT22;62824;52.994;-3.936;2024-03-02T01:52:58;2.10;99.90
74384;DHT22;62824;52.994;-3.936;2024-03-02T01:55:24;2.10;99.90
74384;DHT22;62824;52.994;-3.936;2024-03-02T01:57:51;2.10;99.90
74384;DHT22;62824;52.994;-3.936;2024-03-02T02:00:19;2.10;99.90
74384;DHT22;62824;52.994;-3.936;2024-03-02T02:02:46;2.00;99.90
74384;DHT22;62824;52.994;-3.936;2024-03-02T02:05:12;1.80;99.90
74384;DHT22;62824;52.994;-3.936;2024-03-02T02:07:40;1.80;99.90
74384;DHT22;62824;52.994;-3.936;2024-03-02T02:10:07;1.80;99.90
74384;DHT22;62824;52.994;-3.936;2024-03-02T02:12:33;1.90;99.90
74384;DHT22;62824;52.994;-3.936;2024-03-02T02:14:59;2.00;99.90
74384;DHT22;62824;52.994;-3.936;2024-03-02T02:17:25;2.10;99.90
74384;DHT22;62824;52.994;-3.936;2024-03-02T02:19:51;2.20;99.90
74384;DHT22;62824;52.994;-3.936;2024-03-02T02:22:17;2.20;99.90
74384;DHT22;62824;52.994;-3.936;2024-03-02T02:24:43;2.20;99.90
74384;DHT22;62824;52.994;-3.936;2024-03-02T02:27:09;2.10;99.90
74384;DHT22;62824;52.994;-3.936;2024-03-02T02:29:41;2.20;99.90
74384;DHT22;62824;52.994;-3.936;2024-03-02T02:32:06;2.20;99.90
74384;DHT22;62824;52.994;-3.936;2024-03-02T02:34:32;2.20;99.90
74384;DHT22;62824;52.994;-3.936;2024-03-02T02:36:59;2.20;99.90
74384;DHT22;62824;52.994;-3.936;2024-03-02T02:39:25;2.30;99.90
74384;DHT22;62824;52.994;-3.936;2024-03-02T02:41:51;2.30;99.90
74384;DHT22;62824;52.994;-3.936;2024-03-02T02:44:17;2.40;99.90
74384;DHT22;62824;52.994;-3.936;2024-03-02T02:46:43;2.30;99.90
74384;DHT22;62824;52.994;-3.936;2024-03-02T02:49:08;2.40;99.90
74384;DHT22;62824;52.994;-3.936;2024-03-02T02:51:34;2.30;99.90
74384;DHT22;62824;52.994;-3.936;2024-03-02T02:54:01;2.30;99.90
74384;DHT22;62824;52.994;-3.936;2024-03-02T02:56:27;2.30;99.90
74384;DHT22;62824;52.994;-3.936;2024-03-02T02:58:52;2.30;99.90
74384;DHT22;62824;52.994;-3.936;2024-03-02T03:01:18;2.30;99.90
74384;DHT22;62824;52.994;-3.936;2024-03-02T03:03:44;2.40;99.90
74384;DHT22;62824;52.994;-3.936;2024-03-02T03:06:11;2.40;99.90
74384;DHT22;62824;52.994;-3.936;2024-03-02T03:08:37;2.40;99.90
74384;DHT22;62824;52.994;-3.936;2024-03-02T03:11:03;2.40;99.90
74384;DHT22;62824;52.994;-3.936;2024-03-02T03:13:34;2.30;99.90
74384;DHT22;62824;52.994;-3.936;2024-03-02T03:16:00;2.30;99.90
74384;DHT22;62824;52.994;-3.936;2024-03-02T03:18:25;2.30;99.90
74384;DHT22;62824;52.994;-3.936;2024-03-02T03:20:51;2.40;99.90
74384;DHT22;62824;52.994;-3.936;2024-03-02T03:23:17;2.40;99.90
74384;DHT22;62824;52.994;-3.936;2024-03-02T03:25:43;2.40;99.90
74384;DHT22;62824;52.994;-3.936;2024-03-02T03:28:09;2.40;99.90
74384;DHT22;62824;52.994;-3.936;2024-03-02T03:30:37;2.40;99.90
74384;DHT22;62824;52.994;-3.936;2024-03-02T03:33:03;2.50;99.90
74384;DHT22;62824;52.994;-3.936;2024-03-02T03:35:29;2.50;99.90
74384;DHT22;62824;52.994;-3.936;2024-03-02T03:37:55;2.60;99.90
74384;DHT22;62824;52.994;-3.936;2024-03-02T03:40:21;2.60;99.90
74384;DHT22;62824;52.994;-3.936;2024-03-02T03:42:48;2.60;99.90
74384;DHT22;62824;52.994;-3.936;2024-03-02T03:45:16;2.60;99.90
74384;DHT22;62824;52.994;-3.936;2024-03-02T03:47:41;2.60;99.90
74384;DHT22;62824;52.994;-3.936;2024-03-02T03:50:08;2.60;99.90
74384;DHT22;62824;52.994;-3.936;2024-03-02T03:52:33;2.60;99.90
74384;DHT22;62824;52.994;-3.936;2024-03-02T03:55:00;2.60;99.90
74384;DHT22;62824;52.994;-3.936;2024-03-02T03:57:26;2.60;99.90
74384;DHT22;62824;52.994;-3.936;2024-03-02T03:59:52;2.60;99.90
74384;DHT22;62824;52.994;-3.936;2024-03-02T04:02:19;2.60;99.90
74384;DHT22;62824;52.994;-3.936;2024-03-02T04:04:45;2.70;99.90
74384;DHT22;62824;52.994;-3.936;2024-03-02T04:07:11;2.70;99.90
74384;DHT22;62824;52.994;-3.936;2024-03-02T04:09:38;2.70;99.90
74384;DHT22;62824;52.994;-3.936;2024-03-02T04:12:04;2.60;99.90
74384;DHT22;62824;52.994;-3.936;2024-03-02T04:14:30;2.50;99.90
74384;DHT22;62824;52.994;-3.936;2024-03-02T04:16:55;2.50;99.90
74384;DHT22;62824;52.994;-3.936;2024-03-02T04:19:21;2.40;99.90
74384;DHT22;62824;52.994;-3.936;2024-03-02T04:21:47;2.40;99.90
74384;DHT22;62824;52.994;-3.936;2024-03-02T04:24:13;2.40;99.90
74384;DHT22;62824;52.994;-3.936;2024-03-02T04:26:39;2.50;99.90
74384;DHT22;62824;52.994;-3.936;2024-03-02T04:29:05;2.40;99.90
74384;DHT22;62824;52.994;-3.936;2024-03-02T04:31:31;2.40;99.90
74384;DHT22;62824;52.994;-3.936;2024-03-02T04:33:57;2.40;99.90
74384;DHT22;62824;52.994;-3.936;2024-03-02T04:36:22;2.40;99.90
74384;DHT22;62824;52.994;-3.936;2024-03-02T04:38:49;2.50;99.90
74384;DHT22;62824;52.994;-3.936;2024-03-02T04:41:15;2.50;99.90
74384;DHT22;62824;52.994;-3.936;2024-03-02T04:43:41;2.50;99.90
74384;DHT22;62824;52.994;-3.936;2024-03-02T04:46:07;2.50;99.90
74384;DHT22;62824;52.994;-3.936;2024-03-02T04:48:33;2.50;99.90
74384;DHT22;62824;52.994;-3.936;2024-03-02T04:50:59;2.40;99.90
74384;DHT22;62824;52.994;-3.936;2024-03-02T04:53:25;2.40;99.90
74384;DHT22;62824;52.994;-3.936;2024-03-02T04:55:51;2.40;99.90
74384;DHT22;62824;52.994;-3.936;2024-03-02T04:58:43;2.40;99.90
74384;DHT22;62824;52.994;-3.936;2024-03-02T05:01:09;2.30;99.90
74384;DHT22;62824;52.994;-3.936;2024-03-02T05:03:35;2.30;99.90
74384;DHT22;62824;52.994;-3.936;2024-03-02T05:06:01;2.30;99.90
74384;DHT22;62824;52.994;-3.936;2024-03-02T05:08:27;2.40;99.90
74384;DHT22;62824;52.994;-3.936;2024-03-02T05:10:52;2.30;99.90
74384;DHT22;62824;52.994;-3.936;2024-03-02T05:13:18;2.30;99.90
74384;DHT22;62824;52.994;-3.936;2024-03-02T05:15:46;2.30;99.90
74384;DHT22;62824;52.994;-3.936;2024-03-02T05:18:12;2.30;99.90
74384;DHT22;62824;52.994;-3.936;2024-03-02T05:20:38;2.30;99.90
74384;DHT22;62824;52.994;-3.936;2024-03-02T05:23:04;2.30;99.90
74384;DHT22;62824;52.994;-3.936;2024-03-02T05:25:30;2.30;99.90
74384;DHT22;62824;52.994;-3.936;2024-03-02T05:27:56;2.30;99.90
74384;DHT22;62824;52.994;-3.936;2024-03-02T05:30:21;2.40;99.90
74384;DHT22;62824;52.994;-3.936;2024-03-02T05:32:47;2.40;99.90
74384;DHT22;62824;52.994;-3.936;2024-03-02T05:35:13;2.30;99.90
74384;DHT22;62824;52.994;-3.936;2024-03-02T05:37:39;2.30;99.90
74384;DHT22;62824;52.994;-3.936;2024-03-02T05:40:05;2.30;99.90
74384;DHT22;62824;52.994;-3.936;2024-03-02T05:42:31;2.20;99.90
74384;DHT22;62824;52.994;-3.936;2024-03-02T05:44:57;2.20;99.90
74384;DHT22;62824;52.994;-3.936;2024-03-02T05:47:23;2.20;99.90
74384;DHT22;62824;52.994;-3.936;2024-03-02T05:49:48;2.20;99.90
74384;DHT22;62824;52.994;-3.936;2024-03-02T05:52:14;2.20;99.90
74384;DHT22;62824;52.994;-3.936;2024-03-02T05:54:40;2.20;99.90
74384;DHT22;62824;52.994;-3.936;2024-03-02T05:57:06;2.10;99.90
74384;DHT22;62824;52.994;-3.936;2024-03-02T05:59:50;2.20;99.90
74384;DHT22;62824;52.994;-3.936;2024-03-02T06:02:16;2.10;99.90
74384;DHT22;62824;52.994;-3.936;2024-03-02T06:04:42;2.10;99.90
74384;DHT22;62824;52.994;-3.936;2024-03-02T06:07:07;2.10;99.90
74384;DHT22;62824;52.994;-3.936;2024-03-02T06:09:33;2.10;99.90
74384;DHT22;62824;52.994;-3.936;2024-03-02T06:11:59;2.20;99.90
74384;DHT22;62824;52.994;-3.936;2024-03-02T06:14:26;2.10;99.90
74384;DHT22;62824;52.994;-3.936;2024-03-02T06:16:51;2.20;99.90
74384;DHT22;62824;52.994;-3.936;2024-03-02T06:19:17;2.10;99.90
74384;DHT22;62824;52.994;-3.936;2024-03-02T06:21:43;2.10;99.90
74384;DHT22;62824;52.994;-3.936;2024-03-02T06:24:09;2.10;99.90
74384;DHT22;62824;52.994;-3.936;2024-03-02T06:26:35;2.10;99.90
74384;DHT22;62824;52.994;-3.936;2024-03-02T06:29:01;2.10;99.90
74384;DHT22;62824;52.994;-3.936;2024-03-02T06:31:28;2.10;99.90
74384;DHT22;62824;52.994;-3.936;2024-03-02T06:33:54;2.10;99.90
74384;DHT22;62824;52.994;-3.936;2024-03-02T06:36:20;2.10;99.90
74384;DHT22;62824;52.994;-3.936;2024-03-02T06:38:46;2.10;99.90
74384;DHT22;62824;52.994;-3.936;2024-03-02T06:41:11;2.10;99.90
74384;DHT22;62824;52.994;-3.936;2024-03-02T06:43:38;2.20;99.90
74384;DHT22;62824;52.994;-3.936;2024-03-02T06:46:04;2.20;99.90
74384;DHT22;62824;52.994;-3.936;2024-03-02T06:48:31;2.20;99.90
74384;DHT22;62824;52.994;-3.936;2024-03-02T06:50:57;2.30;99.90
74384;DHT22;62824;52.994;-3.936;2024-03-02T06:53:23;2.20;99.90
74384;DHT22;62824;52.994;-3.936;2024-03-02T06:55:49;2.20;99.90
74384;DHT22;62824;52.994;-3.936;2024-03-02T06:58:15;2.30;99.90
74384;DHT22;62824;52.994;-3.936;2024-03-02T07:00:42;2.30;99.90
74384;DHT22;62824;52.994;-3.936;2024-03-02T07:03:09;2.20;99.90
74384;DHT22;62824;52.994;-3.936;2024-03-02T07:05:36;2.20;99.90
74384;DHT22;62824;52.994;-3.936;2024-03-02T07:08:02;2.20;99.90
74384;DHT22;62824;52.994;-3.936;2024-03-02T07:10:29;2.20;99.90
74384;DHT22;62824;52.994;-3.936;2024-03-02T07:12:55;2.20;99.90
74384;DHT22;62824;52.994;-3.936;2024-03-02T07:15:20;2.20;99.90
74384;DHT22;62824;52.994;-3.936;2024-03-02T07:17:52;2.30;99.90
74384;DHT22;62824;52.994;-3.936;2024-03-02T07:20:18;2.30;99.90
74384;DHT22;62824;52.994;-3.936;2024-03-02T07:22:44;2.30;99.90
74384;DHT22;62824;52.994;-3.936;2024-03-02T07:25:13;2.20;99.90
74384;DHT22;62824;52.994;-3.936;2024-03-02T07:27:40;2.30;99.90
74384;DHT22;62824;52.994;-3.936;2024-03-02T07:30:06;2.30;99.90
74384;DHT22;62824;52.994;-3.936;2024-03-02T07:32:32;2.30;99.90
74384;DHT22;62824;52.994;-3.936;2024-03-02T07:34:58;2.30;99.90
74384;DHT22;62824;52.994;-3.936;2024-03-02T07:37:24;2.40;99.90
74384;DHT22;62824;52.994;-3.936;2024-03-02T07:39:50;2.40;99.90
74384;DHT22;62824;52.994;-3.936;2024-03-02T07:42:16;2.40;99.90
74384;DHT22;62824;52.994;-3.936;2024-03-02T07:44:44;2.50;99.90
74384;DHT22;62824;52.994;-3.936;2024-03-02T07:47:11;2.50;99.90
74384;DHT22;62824;52.994;-3.936;2024-03-02T07:49:37;2.50;99.90
74384;DHT22;62824;52.994;-3.936;2024-03-02T07:52:03;2.50;99.90
74384;DHT22;62824;52.994;-3.936;2024-03-02T07:54:29;2.60;99.90
74384;DHT22;62824;52.994;-3.936;2024-03-02T07:56:55;2.60;99.90
74384;DHT22;62824;52.994;-3.936;2024-03-02T07:59:21;2.60;99.90
74384;DHT22;62824;52.994;-3.936;2024-03-02T08:01:49;2.60;99.90
74384;DHT22;62824;52.994;-3.936;2024-03-02T08:04:16;2.60;99.90
74384;DHT22;62824;52.994;-3.936;2024-03-02T08:06:42;2.70;99.90
74384;DHT22;62824;52.994;-3.936;2024-03-02T08:09:08;2.60;99.90
74384;DHT22;62824;52.994;-3.936;2024-03-02T08:11:36;2.60;99.90
74384;DHT22;62824;52.994;-3.936;2024-03-02T08:14:03;2.60;99.90
74384;DHT22;62824;52.994;-3.936;2024-03-02T08:16:29;2.60;99.90
74384;DHT22;62824;52.994;-3.936;2024-03-02T08:18:55;2.60;99.90
74384;DHT22;62824;52.994;-3.936;2024-03-02T08:21:24;2.60;99.90
74384;DHT22;62824;52.994;-3.936;2024-03-02T08:23:50;2.60;99.90
74384;DHT22;62824;52.994;-3.936;2024-03-02T08:26:16;2.70;99.90
74384;DHT22;62824;52.994;-3.936;2024-03-02T08:28:42;2.80;99.90
74384;DHT22;62824;52.994;-3.936;2024-03-02T08:31:08;2.80;99.90
74384;DHT22;62824;52.994;-3.936;2024-03-02T08:33:34;2.90;99.90
74384;DHT22;62824;52.994;-3.936;2024-03-02T08:36:00;3.00;99.90
74384;DHT22;62824;52.994;-3.936;2024-03-02T08:38:26;3.10;99.90
74384;DHT22;62824;52.994;-3.936;2024-03-02T08:40:53;3.00;99.90
74384;DHT22;62824;52.994;-3.936;2024-03-02T08:43:19;3.00;99.90
74384;DHT22;62824;52.994;-3.936;2024-03-02T08:45:45;3.10;99.90
74384;DHT22;62824;52.994;-3.936;2024-03-02T08:48:13;3.10;99.90
74384;DHT22;62824;52.994;-3.936;2024-03-02T08:50:39;3.30;99.90
74384;DHT22;62824;52.994;-3.936;2024-03-02T08:53:04;3.30;99.90
74384;DHT22;62824;52.994;-3.936;2024-03-02T08:55:30;3.30;99.90
74384;DHT22;62824;52.994;-3.936;2024-03-02T08:57:56;3.40;99.90
74384;DHT22;62824;52.994;-3.936;2024-03-02T09:00:23;3.40;99.90
74384;DHT22;62824;52.994;-3.936;2024-03-02T09:02:49;3.60;99.90
74384;DHT22;62824;52.994;-3.936;2024-03-02T09:05:15;3.70;99.90
74384;DHT22;62824;52.994;-3.936;2024-03-02T09:07:41;3.80;99.90
74384;DHT22;62824;52.994;-3.936;2024-03-02T09:10:08;4.10;99.90
74384;DHT22;62824;52.994;-3.936;2024-03-02T09:12:35;4.30;99.90
74384;DHT22;62824;52.994;-3.936;2024-03-02T09:15:01;4.60;99.90
74384;DHT22;62824;52.994;-3.936;2024-03-02T09:17:29;5.20;99.90
74384;DHT22;62824;52.994;-3.936;2024-03-02T09:19:55;5.70;99.90
74384;DHT22;62824;52.994;-3.936;2024-03-02T09:22:21;6.20;97.50
74384;DHT22;62824;52.994;-3.936;2024-03-02T09:24:47;6.50;93.40
74384;DHT22;62824;52.994;-3.936;2024-03-02T09:27:13;7.00;90.50
74384;DHT22;62824;52.994;-3.936;2024-03-02T09:29:39;7.70;75.50
74384;DHT22;62824;52.994;-3.936;2024-03-02T09:32:11;7.80;74.20
74384;DHT22;62824;52.994;-3.936;2024-03-02T09:34:37;8.30;74.90
74384;DHT22;62824;52.994;-3.936;2024-03-02T09:37:03;9.30;55.10
74384;DHT22;62824;52.994;-3.936;2024-03-02T09:39:30;9.10;51.50
74384;DHT22;62824;52.994;-3.936;2024-03-02T09:41:56;9.80;44.10
74384;DHT22;62824;52.994;-3.936;2024-03-02T09:44:23;10.20;35.70
74384;DHT22;62824;52.994;-3.936;2024-03-02T09:46:51;10.10;36.30
74384;DHT22;62824;52.994;-3.936;2024-03-02T09:49:17;10.70;32.60
74384;DHT22;62824;52.994;-3.936;2024-03-02T09:51:48;11.70;28.60
74384;DHT22;62824;52.994;-3.936;2024-03-02T09:54:17;11.20;27.50
74384;DHT22;62824;52.994;-3.936;2024-03-02T09:56:44;11.40;24.60
74384;DHT22;62824;52.994;-3.936;2024-03-02T09:59:10;10.80;23.50
74384;DHT22;62824;52.994;-3.936;2024-03-02T10:01:36;9.40;38.60
74384;DHT22;62824;52.994;-3.936;2024-03-02T10:04:02;9.10;45.40
74384;DHT22;62824;52.994;-3.936;2024-03-02T10:06:28;8.10;58.20
74384;DHT22;62824;52.994;-3.936;2024-03-02T10:08:55;7.30;73.00
74384;DHT22;62824;52.994;-3.936;2024-03-02T10:14:13;6.50;92.40
74384;DHT22;62824;52.994;-3.936;2024-03-02T10:16:40;6.40;94.70
74384;DHT22;62824;52.994;-3.936;2024-03-02T10:19:16;6.50;94.90
74384;DHT22;62824;52.994;-3.936;2024-03-02T10:21:47;7.00;95.30
74384;DHT22;62824;52.994;-3.936;2024-03-02T10:24:13;7.10;90.80
74384;DHT22;62824;52.994;-3.936;2024-03-02T10:26:39;7.00;93.60
74384;DHT22;62824;52.994;-3.936;2024-03-02T10:29:05;7.40;91.10
74384;DHT22;62824;52.994;-3.936;2024-03-02T10:31:30;7.10;88.80
74384;DHT22;62824;52.994;-3.936;2024-03-02T10:34:00;8.10;83.40
74384;DHT22;62824;52.994;-3.936;2024-03-02T10:36:28;7.80;84.60
74384;DHT22;62824;52.994;-3.936;2024-03-02T10:38:56;8.20;79.80
74384;DHT22;62824;52.994;-3.936;2024-03-02T10:41:24;8.90;71.70
74384;DHT22;62824;52.994;-3.936;2024-03-02T10:43:53;8.90;75.30
74384;DHT22;62824;52.994;-3.936;2024-03-02T10:46:29;9.40;56.30
74384;DHT22;62824;52.994;-3.936;2024-03-02T10:48:59;9.00;60.60
74384;DHT22;62824;52.994;-3.936;2024-03-02T10:51:29;9.00;65.80
74384;DHT22;62824;52.994;-3.936;2024-03-02T10:53:59;9.70;53.30
74384;DHT22;62824;52.994;-3.936;2024-03-02T10:56:34;9.90;50.10
74384;DHT22;62824;52.994;-3.936;2024-03-02T11:01:39;8.00;67.70
74384;DHT22;62824;52.994;-3.936;2024-03-02T11:04:08;7.10;78.10
74384;DHT22;62824;52.994;-3.936;2024-03-02T11:06:36;7.50;84.00
74384;DHT22;62824;52.994;-3.936;2024-03-02T11:09:08;8.00;65.10
74384;DHT22;62824;52.994;-3.936;2024-03-02T11:11:37;9.10;64.00
74384;DHT22;62824;52.994;-3.936;2024-03-02T11:14:07;9.00;53.40
74384;DHT22;62824;52.994;-3.936;2024-03-02T11:16:38;8.80;57.10
74384;DHT22;62824;52.994;-3.936;2024-03-02T11:19:08;9.10;56.10
74384;DHT22;62824;52.994;-3.936;2024-03-02T11:21:36;10.30;48.90
74384;DHT22;62824;52.994;-3.936;2024-03-02T11:26:46;11.30;34.60
74384;DHT22;62824;52.994;-3.936;2024-03-02T11:32:06;10.30;30.20
74384;DHT22;62824;52.994;-3.936;2024-03-02T11:34:38;10.20;31.20
74384;DHT22;62824;52.994;-3.936;2024-03-02T11:37:11;9.10;32.80
74384;DHT22;62824;52.994;-3.936;2024-03-02T11:39:39;8.30;56.70
74384;DHT22;62824;52.994;-3.936;2024-03-02T11:42:08;7.70;56.50
74384;DHT22;62824;52.994;-3.936;2024-03-02T11:44:37;7.20;66.40
74384;DHT22;62824;52.994;-3.936;2024-03-02T11:47:08;7.00;77.00
74384;DHT22;62824;52.994;-3.936;2024-03-02T11:49:43;6.80;76.40
74384;DHT22;62824;52.994;-3.936;2024-03-02T11:52:14;6.90;79.80
74384;DHT22;62824;52.994;-3.936;2024-03-02T11:54:44;7.00;79.50
74384;DHT22;62824;52.994;-3.936;2024-03-02T11:57:23;7.10;80.20
74384;DHT22;62824;52.994;-3.936;2024-03-02T11:59:49;7.00;83.30
74384;DHT22;62824;52.994;-3.936;2024-03-02T12:02:19;7.50;85.00
74384;DHT22;62824;52.994;-3.936;2024-03-02T12:04:46;7.50;75.10
74384;DHT22;62824;52.994;-3.936;2024-03-02T12:07:21;8.50;68.40
74384;DHT22;62824;52.994;-3.936;2024-03-02T12:09:49;9.80;52.60
74384;DHT22;62824;52.994;-3.936;2024-03-02T12:12:15;9.30;42.60
74384;DHT22;62824;52.994;-3.936;2024-03-02T12:14:51;8.70;47.90
74384;DHT22;62824;52.994;-3.936;2024-03-02T12:17:18;8.60;58.20
74384;DHT22;62824;52.994;-3.936;2024-03-02T12:19:44;8.40;47.00
74384;DHT22;62824;52.994;-3.936;2024-03-02T12:22:11;8.20;54.00
74384;DHT22;62824;52.994;-3.936;2024-03-02T12:24:37;8.10;55.60
74384;DHT22;62824;52.994;-3.936;2024-03-02T12:27:05;7.60;58.40
74384;DHT22;62824;52.994;-3.936;2024-03-02T12:29:31;7.20;60.20
74384;DHT22;62824;52.994;-3.936;2024-03-02T12:31:58;7.00;65.90
74384;DHT22;62824;52.994;-3.936;2024-03-02T12:34:25;7.00;69.70
74384;DHT22;62824;52.994;-3.936;2024-03-02T12:36:51;7.20;72.10
74384;DHT22;62824;52.994;-3.936;2024-03-02T12:39:21;7.40;72.70
74384;DHT22;62824;52.994;-3.936;2024-03-02T12:41:49;7.20;72.20
74384;DHT22;62824;52.994;-3.936;2024-03-02T12:44:16;6.80;77.20
74384;DHT22;62824;52.994;-3.936;2024-03-02T12:46:43;6.60;78.50
74384;DHT22;62824;52.994;-3.936;2024-03-02T12:49:10;6.80;75.20
74384;DHT22;62824;52.994;-3.936;2024-03-02T12:51:40;7.00;70.00
74384;DHT22;62824;52.994;-3.936;2024-03-02T12:54:10;7.10;60.40
74384;DHT22;62824;52.994;-3.936;2024-03-02T12:56:41;7.40;56.00
74384;DHT22;62824;52.994;-3.936;2024-03-02T12:59:18;7.90;52.10
74384;DHT22;62824;52.994;-3.936;2024-03-02T13:01:53;7.90;51.40
74384;DHT22;62824;52.994;-3.936;2024-03-02T13:04:26;7.50;58.10
74384;DHT22;62824;52.994;-3.936;2024-03-02T13:06:54;7.10;56.60
74384;DHT22;62824;52.994;-3.936;2024-03-02T13:09:21;7.00;63.00
74384;DHT22;62824;52.994;-3.936;2024-03-02T13:11:48;8.10;51.60
74384;DHT22;62824;52.994;-3.936;2024-03-02T13:14:14;8.00;46.50
74384;DHT22;62824;52.994;-3.936;2024-03-02T13:16:41;7.60;47.10
74384;DHT22;62824;52.994;-3.936;2024-03-02T13:19:08;7.50;48.20
74384;DHT22;62824;52.994;-3.936;2024-03-02T13:21:36;7.60;48.60
74384;DHT22;62824;52.994;-3.936;2024-03-02T13:24:03;7.90;43.30
74384;DHT22;62824;52.994;-3.936;2024-03-02T13:26:29;8.50;40.10
74384;DHT22;62824;52.994;-3.936;2024-03-02T13:28:55;8.50;43.20
74384;DHT22;62824;52.994;-3.936;2024-03-02T13:31:21;8.60;42.40
74384;DHT22;62824;52.994;-3.936;2024-03-02T13:33:47;8.60;35.00
74384;DHT22;62824;52.994;-3.936;2024-03-02T13:36:13;8.40;38.40
74384;DHT22;62824;52.994;-3.936;2024-03-02T13:38:39;8.20;41.50
74384;DHT22;62824;52.994;-3.936;2024-03-02T13:41:05;8.20;42.80
74384;DHT22;62824;52.994;-3.936;2024-03-02T13:43:31;8.30;40.60
74384;DHT22;62824;52.994;-3.936;2024-03-02T13:45:58;8.20;42.40
74384;DHT22;62824;52.994;-3.936;2024-03-02T13:48:24;8.10;42.40
74384;DHT22;62824;52.994;-3.936;2024-03-02T13:50:53;8.00;41.60
74384;DHT22;62824;52.994;-3.936;2024-03-02T13:53:19;8.00;45.50
74384;DHT22;62824;52.994;-3.936;2024-03-02T13:55:45;7.80;43.90
74384;DHT22;62824;52.994;-3.936;2024-03-02T13:58:11;7.90;43.90
74384;DHT22;62824;52.994;-3.936;2024-03-02T14:00:37;7.70;44.30
74384;DHT22;62824;52.994;-3.936;2024-03-02T14:03:06;7.70;46.40
74384;DHT22;62824;52.994;-3.936;2024-03-02T14:05:33;7.60;47.10
74384;DHT22;62824;52.994;-3.936;2024-03-02T14:07:58;7.50;46.90
74384;DHT22;62824;52.994;-3.936;2024-03-02T14:10:26;7.50;50.80
74384;DHT22;62824;52.994;-3.936;2024-03-02T14:12:52;7.40;51.30
74384;DHT22;62824;52.994;-3.936;2024-03-02T14:15:18;7.30;57.90
74384;DHT22;62824;52.994;-3.936;2024-03-02T14:17:44;7.20;59.00
74384;DHT22;62824;52.994;-3.936;2024-03-02T14:20:10;7.20;58.00
74384;DHT22;62824;52.994;-3.936;2024-03-02T14:22:37;7.20;63.40
74384;DHT22;62824;52.994;-3.936;2024-03-02T14:25:04;7.10;60.70
74384;DHT22;62824;52.994;-3.936;2024-03-02T14:27:31;7.00;61.40
74384;DHT22;62824;52.994;-3.936;2024-03-02T14:29:58;6.90;63.00
74384;DHT22;62824;52.994;-3.936;2024-03-02T14:32:23;7.00;63.20
74384;DHT22;62824;52.994;-3.936;2024-03-02T14:34:49;7.00;63.70
74384;DHT22;62824;52.994;-3.936;2024-03-02T14:37:15;7.00;62.30
74384;DHT22;62824;52.994;-3.936;2024-03-02T14:39:41;7.10;62.20
74384;DHT22;62824;52.994;-3.936;2024-03-02T14:42:07;7.10;62.60
74384;DHT22;62824;52.994;-3.936;2024-03-02T14:44:33;7.70;59.40
74384;DHT22;62824;52.994;-3.936;2024-03-02T14:47:02;8.50;51.60
74384;DHT22;62824;52.994;-3.936;2024-03-02T14:49:32;9.40;39.10
74384;DHT22;62824;52.994;-3.936;2024-03-02T14:52:01;9.90;32.60
74384;DHT22;62824;52.994;-3.936;2024-03-02T14:54:27;9.70;32.40
74384;DHT22;62824;52.994;-3.936;2024-03-02T14:56:53;9.00;34.60
74384;DHT22;62824;52.994;-3.936;2024-03-02T14:59:18;8.50;40.60
74384;DHT22;62824;52.994;-3.936;2024-03-02T15:01:45;8.80;43.00
74384;DHT22;62824;52.994;-3.936;2024-03-02T15:04:14;8.70;38.10
74384;DHT22;62824;52.994;-3.936;2024-03-02T15:06:42;8.60;41.40
74384;DHT22;62824;52.994;-3.936;2024-03-02T15:09:08;8.60;40.60
74384;DHT22;62824;52.994;-3.936;2024-03-02T15:11:34;8.60;38.20
74384;DHT22;62824;52.994;-3.936;2024-03-02T15:14:00;8.70;35.50
74384;DHT22;62824;52.994;-3.936;2024-03-02T15:16:26;8.70;37.60
74384;DHT22;62824;52.994;-3.936;2024-03-02T15:18:53;9.00;31.10
74384;DHT22;62824;52.994;-3.936;2024-03-02T15:21:19;8.60;35.90
74384;DHT22;62824;52.994;-3.936;2024-03-02T15:23:45;8.60;35.80
74384;DHT22;62824;52.994;-3.936;2024-03-02T15:26:11;8.70;37.90
74384;DHT22;62824;52.994;-3.936;2024-03-02T15:28:37;8.50;37.50
74384;DHT22;62824;52.994;-3.936;2024-03-02T15:31:03;8.40;44.60
74384;DHT22;62824;52.994;-3.936;2024-03-02T15:33:30;8.70;38.60
74384;DHT22;62824;52.994;-3.936;2024-03-02T15:36:00;8.90;37.80
74384;DHT22;62824;52.994;-3.936;2024-03-02T15:38:26;9.10;35.10
74384;DHT22;62824;52.994;-3.936;2024-03-02T15:40:55;9.30;33.90
74384;DHT22;62824;52.994;-3.936;2024-03-02T15:43:21;8.90;32.50